createdAt,value
2023-04-06T00:01:02.524Z,7.11
2023-04-06T00:03:28.970Z,6.99
2023-04-06T00:05:55.401Z,7.26
2023-04-06T00:08:21.837Z,7.25
2023-04-06T00:10:48.246Z,7.25
2023-04-06T00:13:14.660Z,6.93
2023-04-06T00:15:41.206Z,6.88
2023-04-06T00:18:07.731Z,7.24
2023-04-06T00:20:34.210Z,7.36
2023-04-06T00:23:00.599Z,7.32
2023-04-06T00:25:27.026Z,7.31
2023-04-06T00:27:53.419Z,7.05
2023-04-06T00:30:19.820Z,7.16
2023-04-06T00:32:46.379Z,7.42
2023-04-06T00:35:12.824Z,7.37
2023-04-06T00:37:39.237Z,7.09
2023-04-06T00:40:05.625Z,7.27
2023-04-06T00:42:32.052Z,7.26
2023-04-06T00:44:58.463Z,7.04
2023-04-06T00:47:24.856Z,7.02
2023-04-06T00:49:51.362Z,7.03
2023-04-06T00:52:17.756Z,7.12
2023-04-06T00:54:44.169Z,7.06
2023-04-06T00:57:10.564Z,7.08
2023-04-06T00:59:37.051Z,7.01
2023-04-06T01:02:03.510Z,6.66
2023-04-06T01:04:29.921Z,6.76
2023-04-06T01:06:56.317Z,6.87
2023-04-06T01:09:22.706Z,6.40
2023-04-06T01:11:49.120Z,6.69
2023-04-06T01:14:15.517Z,6.78
2023-04-06T01:16:41.905Z,6.82
2023-04-06T01:19:08.712Z,7.08
2023-04-06T01:21:35.383Z,6.73
2023-04-06T01:24:01.770Z,6.93
2023-04-06T01:26:28.182Z,7.08
2023-04-06T01:28:54.575Z,7.03
2023-04-06T01:31:21.017Z,7.05
2023-04-06T01:33:47.433Z,7.43
2023-04-06T01:36:13.813Z,7.15
2023-04-06T01:38:40.213Z,6.86
2023-04-06T01:41:06.627Z,6.71
2023-04-06T01:43:33.057Z,6.68
2023-04-06T01:45:59.445Z,6.59
2023-04-06T01:48:25.892Z,7.04
2023-04-06T01:50:52.294Z,6.68
2023-04-06T01:53:18.672Z,6.73
2023-04-06T01:55:45.104Z,6.65
2023-04-06T01:58:11.546Z,6.84
2023-04-06T02:00:37.978Z,6.68
2023-04-06T02:03:04.498Z,6.59
2023-04-06T02:05:31.040Z,6.97
2023-04-06T02:07:57.422Z,6.99
2023-04-06T02:10:23.814Z,6.54
2023-04-06T02:12:50.235Z,6.39
2023-04-06T02:15:16.627Z,6.54
2023-04-06T02:17:43.055Z,6.85
2023-04-06T02:20:09.519Z,6.62
2023-04-06T02:22:35.927Z,6.68
2023-04-06T02:25:02.330Z,6.76
2023-04-06T02:27:28.773Z,6.39
2023-04-06T02:29:55.177Z,6.57
2023-04-06T02:32:21.689Z,6.63
2023-04-06T02:34:48.151Z,6.60
2023-04-06T02:37:14.577Z,7.02
2023-04-06T02:39:40.986Z,6.88
2023-04-06T02:42:07.382Z,6.98
2023-04-06T02:44:33.778Z,7.12
2023-04-06T02:47:00.174Z,6.61
2023-04-06T02:49:26.616Z,7.22
2023-04-06T02:51:53.026Z,7.19
2023-04-06T02:54:19.428Z,7.22
2023-04-06T02:56:45.822Z,7.26
2023-04-06T02:59:12.386Z,7.33
2023-04-06T03:01:38.880Z,7.28
2023-04-06T03:04:05.297Z,7.51
2023-04-06T03:06:31.719Z,7.32
2023-04-06T03:08:58.311Z,7.05
2023-04-06T03:11:24.704Z,6.95
2023-04-06T03:13:51.147Z,6.96
2023-04-06T03:16:17.563Z,7.48
2023-04-06T03:18:43.999Z,7.63
2023-04-06T03:21:10.393Z,7.47
2023-04-06T03:23:36.781Z,7.34
2023-04-06T03:26:03.162Z,7.32
2023-04-06T03:28:29.545Z,7.10
2023-04-06T03:30:55.961Z,7.08
2023-04-06T03:33:22.352Z,7.09
2023-04-06T03:35:48.853Z,7.94
2023-04-06T03:38:15.253Z,7.55
2023-04-06T03:40:41.647Z,7.47
2023-04-06T03:43:08.098Z,7.33
2023-04-06T03:45:34.510Z,7.39
2023-04-06T03:48:00.933Z,7.39
2023-04-06T03:50:27.347Z,7.06
2023-04-06T03:52:53.723Z,7.45
2023-04-06T03:55:20.109Z,7.44
2023-04-06T03:57:46.592Z,7.46
2023-04-06T04:00:13.014Z,14.25
2023-04-06T04:02:39.427Z,7.43
2023-04-06T04:05:05.904Z,7.15
2023-04-06T04:07:32.301Z,7.56
2023-04-06T04:09:58.708Z,7.10
2023-04-06T04:12:25.108Z,7.30
2023-04-06T04:14:51.514Z,7.50
2023-04-06T04:17:17.970Z,7.51
2023-04-06T04:19:44.414Z,7.54
2023-04-06T04:22:10.849Z,7.37
2023-04-06T04:24:37.237Z,7.82
2023-04-06T04:27:03.650Z,7.71
2023-04-06T04:29:30.060Z,7.54
2023-04-06T04:31:56.488Z,7.72
2023-04-06T04:34:22.932Z,7.39
2023-04-06T04:36:49.339Z,7.33
2023-04-06T04:39:15.762Z,7.33
2023-04-06T04:41:42.171Z,7.49
2023-04-06T04:44:08.586Z,6.99
2023-04-06T04:46:35.024Z,7.11
2023-04-06T04:49:01.451Z,6.90
2023-04-06T04:51:28.028Z,7.13
2023-04-06T04:53:54.424Z,7.71
2023-04-06T04:56:20.815Z,7.60
2023-04-06T04:58:47.199Z,9.20
2023-04-06T05:01:13.594Z,8.54
2023-04-06T05:03:40.191Z,8.32
2023-04-06T05:06:06.733Z,8.25
2023-04-06T05:08:33.304Z,8.99
2023-04-06T05:10:59.710Z,9.28
2023-04-06T05:13:26.115Z,9.13
2023-04-06T05:15:52.610Z,8.73
2023-04-06T05:18:19.103Z,9.08
2023-04-06T05:20:45.541Z,11.72
2023-04-06T05:23:11.985Z,18.41
2023-04-06T05:25:38.395Z,15.10
2023-04-06T05:28:04.781Z,13.42
2023-04-06T05:30:31.198Z,11.97
2023-04-06T05:32:57.694Z,12.11
2023-04-06T05:35:24.144Z,11.96
2023-04-06T05:37:50.581Z,11.21
2023-04-06T05:40:17.001Z,10.51
2023-04-06T05:42:43.422Z,10.06
2023-04-06T05:45:09.846Z,9.83
2023-04-06T05:47:36.313Z,9.42
2023-04-06T05:50:02.725Z,9.39
2023-04-06T05:52:29.107Z,9.20
2023-04-06T05:54:55.559Z,9.03
2023-04-06T05:57:21.995Z,23.66
2023-04-06T05:59:48.456Z,76.94
2023-04-06T06:02:14.939Z,48.92
2023-04-06T06:04:41.442Z,17.96
2023-04-06T06:07:07.892Z,13.78
2023-04-06T06:09:34.273Z,11.46
2023-04-06T06:12:00.675Z,11.32
2023-04-06T06:14:27.099Z,12.62
2023-04-06T06:16:53.767Z,11.76
2023-04-06T06:19:20.205Z,11.28
2023-04-06T06:21:46.617Z,11.98
2023-04-06T06:24:13.034Z,10.74
2023-04-06T06:26:39.425Z,9.87
2023-04-06T06:29:06.023Z,9.96
2023-04-06T06:31:32.602Z,9.78
2023-04-06T06:33:59.121Z,10.72
2023-04-06T06:36:25.518Z,10.44
2023-04-06T06:38:51.903Z,10.20
2023-04-06T06:41:18.308Z,10.66
2023-04-06T06:43:44.702Z,10.79
2023-04-06T06:46:11.152Z,10.66
2023-04-06T06:48:37.680Z,9.72
2023-04-06T06:51:04.067Z,9.36
2023-04-06T06:53:30.493Z,9.59
2023-04-06T06:55:56.933Z,9.75
2023-04-06T06:58:23.347Z,10.02
2023-04-06T07:00:49.764Z,9.78
2023-04-06T07:03:16.177Z,9.49
2023-04-06T07:05:42.591Z,9.49
2023-04-06T07:08:08.996Z,10.29
2023-04-06T07:10:35.397Z,9.70
2023-04-06T07:13:01.807Z,9.48
2023-04-06T07:15:28.474Z,9.15
2023-04-06T07:17:54.909Z,8.97
2023-04-06T07:20:21.340Z,8.94
2023-04-06T07:22:47.783Z,8.51
2023-04-06T07:25:14.220Z,9.33
2023-04-06T07:27:40.718Z,8.95
2023-04-06T07:30:07.094Z,8.84
2023-04-06T07:32:33.498Z,8.99
2023-04-06T07:34:59.902Z,8.89
2023-04-06T07:37:26.291Z,9.03
2023-04-06T07:39:52.689Z,9.23
2023-04-06T07:42:19.109Z,8.69
2023-04-06T07:44:45.583Z,8.79
2023-04-06T07:47:11.961Z,9.15
2023-04-06T07:49:38.389Z,8.68
2023-04-06T07:52:04.773Z,8.52
2023-04-06T07:54:31.209Z,8.97
2023-04-06T07:56:57.581Z,8.65
2023-04-06T07:59:24.054Z,8.52
2023-04-06T08:01:50.526Z,8.74
2023-04-06T08:04:17.047Z,8.48
2023-04-06T08:06:43.509Z,8.32
2023-04-06T08:09:09.940Z,9.02
2023-04-06T08:11:36.402Z,8.66
2023-04-06T08:14:02.819Z,8.78
2023-04-06T08:16:29.229Z,8.59
2023-04-06T08:18:55.661Z,9.09
2023-04-06T08:21:22.062Z,8.83
2023-04-06T08:23:48.535Z,8.74
2023-04-06T08:26:14.955Z,8.68
2023-04-06T08:28:41.412Z,9.31
2023-04-06T08:31:07.885Z,8.71
2023-04-06T08:33:34.480Z,8.33
2023-04-06T08:36:01.001Z,8.39
2023-04-06T08:38:27.421Z,8.74
2023-04-06T08:40:53.839Z,8.80
2023-04-06T08:43:20.281Z,9.02
2023-04-06T08:45:46.690Z,9.17
2023-04-06T08:48:13.232Z,8.93
2023-04-06T08:50:39.737Z,8.56
2023-04-06T08:53:06.130Z,8.91
2023-04-06T08:55:32.563Z,8.52
2023-04-06T08:57:58.961Z,8.83
2023-04-06T09:00:25.344Z,8.93
2023-04-06T09:02:51.868Z,9.02
2023-04-06T09:05:18.448Z,8.90
2023-04-06T09:07:44.865Z,9.19
2023-04-06T09:10:11.251Z,8.94
2023-04-06T09:12:37.646Z,8.89
2023-04-06T09:15:04.005Z,8.65
2023-04-06T09:17:30.473Z,8.81
2023-04-06T09:19:56.971Z,8.25
2023-04-06T09:22:23.436Z,8.50
2023-04-06T09:24:49.824Z,8.59
2023-04-06T09:27:16.216Z,8.40
2023-04-06T09:29:42.591Z,8.26
2023-04-06T09:32:08.985Z,8.73
2023-04-06T09:34:35.413Z,8.45
2023-04-06T09:37:01.812Z,8.69
2023-04-06T09:39:28.217Z,8.94
2023-04-06T09:41:54.652Z,8.69
2023-04-06T09:44:21.047Z,8.93
2023-04-06T09:46:59.768Z,9.10
2023-04-06T09:49:27.068Z,8.70
2023-04-06T09:51:53.528Z,8.66
2023-04-06T09:54:19.944Z,8.72
2023-04-06T09:56:46.372Z,8.65
2023-04-06T09:59:13.148Z,8.90
2023-04-06T10:01:39.679Z,8.78
2023-04-06T10:04:06.197Z,8.90
2023-04-06T10:06:32.705Z,8.74
2023-04-06T10:08:59.141Z,8.92
2023-04-06T10:11:25.567Z,8.99
2023-04-06T10:13:52.013Z,8.94
2023-04-06T10:16:18.462Z,8.76
2023-04-06T10:18:44.909Z,9.12
2023-04-06T10:21:11.305Z,8.93
2023-04-06T10:23:37.769Z,8.84
2023-04-06T10:26:04.198Z,8.80
2023-04-06T10:28:30.586Z,8.71
2023-04-06T10:30:57.019Z,8.54
2023-04-06T10:33:23.411Z,8.40
2023-04-06T10:35:49.872Z,8.65
2023-04-06T10:38:16.310Z,8.82
2023-04-06T10:40:42.698Z,8.34
2023-04-06T10:43:09.188Z,8.71
2023-04-06T10:45:35.733Z,8.21
2023-04-06T10:48:02.192Z,8.32
2023-04-06T10:50:28.649Z,8.26
2023-04-06T10:52:55.210Z,8.52
2023-04-06T10:55:21.611Z,8.36
2023-04-06T10:57:48.254Z,8.67
2023-04-06T11:00:14.630Z,8.52
2023-04-06T11:02:41.114Z,8.36
2023-04-06T11:05:07.636Z,8.74
2023-04-06T11:07:34.080Z,8.17
2023-04-06T11:10:15.088Z,8.13
2023-04-06T11:12:41.862Z,7.62
2023-04-06T11:15:08.308Z,7.29
2023-04-06T11:17:34.701Z,8.00
2023-04-06T11:20:01.219Z,8.81
2023-04-06T11:22:27.661Z,8.62
2023-04-06T11:24:54.059Z,7.42
2023-04-06T11:27:20.480Z,7.09
2023-04-06T11:29:46.864Z,6.22
2023-04-06T11:32:13.369Z,7.25
2023-04-06T11:34:39.804Z,6.96
2023-04-06T11:37:06.211Z,8.53
2023-04-06T11:39:32.657Z,7.94
2023-04-06T11:41:59.075Z,6.81
2023-04-06T11:44:25.486Z,6.06
2023-04-06T11:46:51.999Z,6.82
2023-04-06T11:49:18.413Z,6.90
2023-04-06T11:51:44.857Z,7.91
2023-04-06T11:54:11.259Z,7.60
2023-04-06T11:56:37.670Z,7.68
2023-04-06T11:59:04.085Z,7.56
2023-04-06T12:01:30.982Z,8.01
2023-04-06T12:03:58.764Z,7.66
2023-04-06T12:06:25.219Z,6.96
2023-04-06T12:08:51.649Z,7.46
2023-04-06T12:11:18.068Z,7.30
2023-04-06T12:13:44.559Z,6.87
2023-04-06T12:16:11.017Z,7.41
2023-04-06T12:18:37.605Z,7.67
2023-04-06T12:21:04.114Z,7.28
2023-04-06T12:23:30.541Z,7.62
2023-04-06T12:25:56.919Z,7.59
2023-04-06T12:28:23.315Z,6.86
2023-04-06T12:30:49.741Z,7.77
2023-04-06T12:33:16.242Z,7.68
2023-04-06T12:35:42.788Z,7.64
2023-04-06T12:38:09.223Z,7.83
2023-04-06T12:40:35.610Z,7.86
2023-04-06T12:43:02.028Z,7.63
2023-04-06T12:45:28.489Z,7.23
2023-04-06T12:47:54.918Z,7.34
2023-04-06T12:50:21.367Z,7.17
2023-04-06T12:52:47.742Z,6.98
2023-04-06T12:55:14.177Z,7.02
2023-04-06T12:57:40.612Z,6.89
2023-04-06T13:00:09.150Z,6.97
2023-04-06T13:02:36.055Z,6.95
2023-04-06T13:05:02.591Z,7.14
2023-04-06T13:07:29.661Z,7.52
2023-04-06T13:09:56.061Z,6.94
2023-04-06T13:12:22.900Z,6.63
2023-04-06T13:14:49.316Z,6.30
2023-04-06T13:17:15.726Z,5.90
2023-04-06T13:19:42.137Z,5.82
2023-04-06T13:22:08.524Z,6.13
2023-04-06T13:24:34.909Z,6.14
2023-04-06T13:27:01.315Z,6.26
2023-04-06T13:29:27.744Z,6.19
2023-04-06T13:31:54.177Z,5.93
2023-04-06T13:34:20.640Z,6.26
2023-04-06T13:36:47.079Z,6.41
2023-04-06T13:39:13.510Z,6.47
2023-04-06T13:41:39.896Z,6.30
2023-04-06T13:44:06.338Z,6.26
2023-04-06T13:46:32.760Z,6.34
2023-04-06T13:48:59.152Z,5.92
2023-04-06T13:51:25.728Z,6.24
2023-04-06T13:53:52.162Z,6.26
2023-04-06T13:56:18.587Z,6.16
2023-04-06T13:58:45.106Z,6.40
2023-04-06T14:01:11.964Z,6.38
2023-04-06T14:03:38.513Z,6.18
2023-04-06T14:06:15.638Z,6.83
2023-04-06T14:08:46.948Z,6.36
2023-04-06T14:11:13.331Z,6.80
2023-04-06T14:13:39.732Z,6.43
2023-04-06T14:16:06.154Z,6.64
2023-04-06T14:18:33.771Z,6.18
2023-04-06T14:21:00.166Z,6.36
2023-04-06T14:23:26.567Z,6.41
2023-04-06T14:25:52.975Z,6.49
2023-04-06T14:28:19.388Z,6.45
2023-04-06T14:30:45.869Z,6.53
2023-04-06T14:33:12.330Z,6.52
2023-04-06T14:35:38.717Z,6.98
2023-04-06T14:38:05.173Z,6.74
2023-04-06T14:40:31.595Z,6.82
2023-04-06T14:42:58.040Z,6.91
2023-04-06T14:45:24.443Z,6.57
2023-04-06T14:47:50.837Z,6.49
2023-04-06T14:50:17.268Z,6.68
2023-04-06T14:52:43.675Z,6.72
2023-04-06T14:55:10.098Z,6.55
2023-04-06T14:57:36.605Z,6.17
2023-04-06T15:00:03.039Z,5.81
2023-04-06T15:02:29.629Z,5.73
2023-04-06T15:04:56.284Z,5.49
2023-04-06T15:07:22.758Z,5.59
2023-04-06T15:09:49.162Z,5.47
2023-04-06T15:12:15.549Z,5.36
2023-04-06T15:14:41.983Z,5.27
2023-04-06T15:17:08.423Z,5.29
2023-04-06T15:19:34.828Z,4.82
2023-04-06T15:22:01.263Z,5.08
2023-04-06T15:24:27.678Z,5.11
2023-04-06T15:26:54.069Z,4.90
2023-04-06T15:29:20.461Z,4.57
2023-04-06T15:31:46.915Z,4.48
2023-04-06T15:34:13.358Z,4.35
2023-04-06T15:36:39.806Z,4.65
2023-04-06T15:39:06.197Z,4.44
2023-04-06T15:41:32.596Z,4.12
2023-04-06T15:43:58.991Z,4.16
2023-04-06T15:46:25.587Z,4.10
2023-04-06T15:48:52.011Z,4.11
2023-04-06T15:51:18.421Z,3.96
2023-04-06T15:53:44.854Z,3.88
2023-04-06T15:56:11.309Z,3.89
2023-04-06T15:58:38.251Z,3.57
2023-04-06T16:01:04.651Z,3.53
2023-04-06T16:03:31.207Z,3.49
2023-04-06T16:06:08.213Z,3.58
2023-04-06T16:08:35.508Z,3.45
2023-04-06T16:11:01.908Z,3.60
2023-04-06T16:13:28.323Z,5.20
2023-04-06T16:15:54.741Z,4.02
2023-04-06T16:18:21.208Z,4.85
2023-04-06T16:20:47.604Z,4.68
2023-04-06T16:23:14.023Z,4.40
2023-04-06T16:25:40.425Z,3.97
2023-04-06T16:28:06.832Z,3.85
2023-04-06T16:30:33.243Z,4.34
2023-04-06T16:32:59.824Z,4.51
2023-04-06T16:35:26.305Z,5.68
2023-04-06T16:37:52.736Z,6.12
2023-04-06T16:40:19.219Z,6.27
2023-04-06T16:42:46.288Z,6.44
2023-04-06T16:45:13.856Z,6.44
2023-04-06T16:47:40.371Z,6.99
2023-04-06T16:50:08.045Z,7.09
2023-04-06T16:52:35.648Z,7.52
2023-04-06T16:55:03.225Z,6.76
2023-04-06T16:57:30.816Z,6.55
2023-04-06T16:59:59.629Z,6.11
2023-04-06T17:02:27.224Z,6.38
2023-04-06T17:04:54.603Z,6.23
2023-04-06T17:07:21.537Z,6.14
2023-04-06T17:09:49.811Z,6.06
2023-04-06T17:12:17.390Z,6.01
2023-04-06T17:14:45.012Z,5.98
2023-04-06T17:17:12.635Z,5.97
2023-04-06T17:19:41.154Z,5.66
2023-04-06T17:22:09.769Z,6.12
2023-04-06T17:24:36.356Z,12.13
2023-04-06T17:27:02.997Z,9.64
2023-04-06T17:29:30.606Z,5.45
2023-04-06T17:31:59.931Z,5.66
2023-04-06T17:34:27.783Z,4.98
2023-04-06T17:37:17.532Z,5.26
2023-04-06T17:39:44.107Z,4.70
2023-04-06T17:42:11.854Z,4.47
2023-04-06T17:44:39.294Z,4.14
2023-04-06T17:47:08.120Z,3.50
2023-04-06T17:49:35.491Z,3.63
2023-04-06T17:52:04.249Z,3.29
2023-04-06T17:54:31.900Z,3.25
2023-04-06T17:56:59.256Z,3.25
2023-04-06T17:59:28.259Z,3.01
2023-04-06T18:01:55.535Z,2.99
2023-04-06T18:04:23.061Z,3.20
2023-04-06T18:06:50.632Z,3.09
2023-04-06T18:09:17.195Z,2.92
2023-04-06T18:11:44.820Z,2.99
2023-04-06T18:14:11.323Z,2.59
2023-04-06T18:16:38.208Z,2.92
2023-04-06T18:19:06.740Z,3.27
2023-04-06T18:21:35.316Z,3.06
2023-04-06T18:24:05.396Z,3.02
2023-04-06T18:26:35.427Z,2.78
2023-04-06T18:29:01.934Z,2.87
2023-04-06T18:31:29.729Z,2.99
2023-04-06T18:33:56.704Z,3.13
2023-04-06T18:36:23.937Z,3.04
2023-04-06T18:38:51.566Z,2.88
2023-04-06T18:41:19.135Z,2.84
2023-04-06T18:43:48.269Z,2.58
2023-04-06T18:46:17.457Z,2.84
2023-04-06T18:48:45.988Z,2.68
2023-04-06T18:51:13.523Z,2.77
2023-04-06T18:53:42.804Z,2.75
2023-04-06T18:56:09.704Z,2.80
2023-04-06T18:58:37.299Z,2.93
2023-04-06T19:01:04.166Z,3.30
2023-04-06T19:03:31.582Z,3.21
2023-04-06T19:06:00.126Z,3.20
2023-04-06T19:08:27.677Z,3.20
2023-04-06T19:10:54.315Z,3.82
2023-04-06T19:13:21.116Z,3.93
2023-04-06T19:15:48.497Z,3.88
2023-04-06T19:18:17.077Z,3.78
2023-04-06T19:20:44.647Z,4.01
2023-04-06T19:23:13.254Z,3.79
2023-04-06T19:25:41.842Z,3.81
2023-04-06T19:28:10.458Z,3.39
2023-04-06T19:30:38.082Z,3.60
2023-04-06T19:33:07.573Z,3.56
2023-04-06T19:35:35.233Z,3.17
2023-04-06T19:38:05.798Z,3.34
2023-04-06T19:40:34.428Z,3.28
2023-04-06T19:43:03.782Z,3.11
2023-04-06T19:45:32.596Z,2.99
2023-04-06T19:47:59.306Z,3.16
2023-04-06T19:50:27.813Z,3.09
2023-04-06T19:52:56.401Z,2.84
2023-04-06T19:55:25.067Z,2.67
2023-04-06T19:57:53.582Z,2.91
2023-04-06T20:00:21.286Z,2.83
2023-04-06T20:02:48.859Z,2.56
2023-04-06T20:05:15.830Z,2.69
2023-04-06T20:07:43.985Z,2.61
2023-04-06T20:10:12.570Z,2.46
2023-04-06T20:12:39.212Z,2.20
2023-04-06T20:15:08.144Z,2.22
2023-04-06T20:17:37.347Z,2.20
2023-04-06T20:20:05.961Z,2.31
2023-04-06T20:22:33.556Z,2.05
2023-04-06T20:25:00.015Z,2.22
2023-04-06T20:27:26.732Z,2.23
2023-04-06T20:29:54.317Z,2.17
2023-04-06T20:32:22.020Z,2.00
2023-04-06T20:34:49.529Z,2.41
2023-04-06T20:37:17.141Z,2.18
2023-04-06T20:39:45.801Z,1.81
2023-04-06T20:42:13.344Z,1.83
2023-04-06T20:44:41.975Z,1.80
2023-04-06T20:47:10.523Z,1.85
2023-04-06T20:49:39.687Z,1.78
2023-04-06T20:52:06.470Z,1.93
2023-04-06T20:54:34.358Z,1.88
2023-04-06T20:57:03.868Z,1.74
2023-04-06T20:59:31.485Z,1.94
2023-04-06T21:01:59.300Z,2.29
2023-04-06T21:04:27.844Z,2.51
2023-04-06T21:06:55.268Z,1.79
2023-04-06T21:09:24.406Z,2.06
2023-04-06T21:11:55.546Z,2.20
2023-04-06T21:14:24.413Z,2.38
2023-04-06T21:16:51.670Z,2.48
2023-04-06T21:19:18.178Z,2.30
2023-04-06T21:21:44.852Z,2.21
2023-04-06T21:24:13.761Z,2.49
2023-04-06T21:26:41.132Z,2.21
2023-04-06T21:29:10.245Z,2.10
2023-04-06T21:31:37.313Z,2.17
2023-04-06T21:34:04.921Z,2.42
2023-04-06T21:36:32.477Z,2.65
2023-04-06T21:38:59.410Z,2.65
2023-04-06T21:41:27.685Z,2.64
2023-04-06T21:43:55.316Z,2.44
2023-04-06T21:46:23.856Z,2.65
2023-04-06T21:48:51.427Z,2.63
2023-04-06T21:51:18.340Z,2.45
2023-04-06T21:53:46.663Z,2.64
2023-04-06T21:56:14.249Z,2.61
2023-04-06T21:58:41.826Z,2.90
2023-04-06T22:01:10.710Z,2.84
2023-04-06T22:03:38.251Z,3.04
2023-04-06T22:06:05.588Z,2.74
2023-04-06T22:08:34.060Z,2.86
2023-04-06T22:11:01.769Z,3.54
2023-04-06T22:13:29.389Z,3.70
2023-04-06T22:15:58.528Z,3.34
2023-04-06T22:18:25.581Z,3.22
2023-04-06T22:20:53.201Z,2.94
2023-04-06T22:23:20.773Z,3.05
2023-04-06T22:25:48.373Z,2.76
2023-04-06T22:28:15.966Z,2.86
2023-04-06T22:30:43.544Z,2.82
2023-04-06T22:33:10.181Z,2.78
2023-04-06T22:35:37.144Z,2.96
2023-04-06T22:38:03.635Z,2.76
2023-04-06T22:40:30.113Z,2.99
2023-04-06T22:42:56.545Z,2.80
2023-04-06T22:45:24.094Z,2.76
2023-04-06T22:47:51.972Z,3.40
2023-04-06T22:50:19.278Z,3.44
2023-04-06T22:52:46.173Z,3.85
2023-04-06T22:55:12.648Z,3.97
2023-04-06T22:57:39.099Z,3.91
2023-04-06T23:00:07.651Z,4.05
2023-04-06T23:02:35.382Z,3.90
2023-04-06T23:05:02.855Z,3.74
2023-04-06T23:07:29.447Z,3.78
2023-04-06T23:09:55.921Z,3.77
2023-04-06T23:12:22.374Z,3.37
2023-04-06T23:14:48.819Z,3.21
2023-04-06T23:17:15.293Z,3.14
2023-04-06T23:19:43.415Z,3.06
2023-04-06T23:22:11.005Z,3.19
2023-04-06T23:24:38.630Z,3.28
2023-04-06T23:27:06.152Z,3.28
2023-04-06T23:29:32.755Z,3.08
2023-04-06T23:31:59.363Z,3.45
2023-04-06T23:34:26.194Z,3.13
2023-04-06T23:36:53.554Z,2.84
2023-04-06T23:39:21.105Z,2.87
2023-04-06T23:41:47.733Z,3.32
2023-04-06T23:44:14.187Z,3.28
2023-04-06T23:46:40.615Z,3.15
2023-04-06T23:49:07.048Z,3.18
2023-04-06T23:51:34.133Z,3.03
2023-04-06T23:54:01.705Z,3.16
2023-04-06T23:56:32.333Z,3.23
2023-04-06T23:58:58.895Z,2.79
